Henlow, United Kingdom
Current Conditions -  °F | °C
As of 1:20 AM on Thursday 27 Nov 2014 (Local Time) from EGGW Reporting Station
Moderate Fog Moderate Fog  
Wind Chill: 46°   Ceiling: 200
Heat Index: 46°   Visibility: 0.34mi
Dew Point: 46°   Wind: 2mph
Humidity: 100%   Direction: 40°NE
Pressure: 29.68"   Gusts: NA
Location:  52.03°N, 0.29°W
Report Text: EGGW 270120Z 04002KT 0550 R08/P1500 FG BKN002 08/08 Q1005
Loading
Personal Weather Stations






























Interactive Weather Map New forecast layout! Learn more

10-Day Weather Forecast

Advertisements
Track Severe Weather on mobile